sensor_id;sensor_type;location;lat;lon;timestamp;temperature;humidity
4374;DHT22;2201;51.100;6.814;2024-03-02T00:01:50;9.10;98.20
4374;DHT22;2201;51.100;6.814;2024-03-02T00:04:17;9.10;98.20
4374;DHT22;2201;51.100;6.814;2024-03-02T00:06:43;9.20;98.20
4374;DHT22;2201;51.100;6.814;2024-03-02T00:09:10;9.20;98.20
4374;DHT22;2201;51.100;6.814;2024-03-02T00:11:38;9.20;98.20
4374;DHT22;2201;51.100;6.814;2024-03-02T00:14:06;9.30;98.20
4374;DHT22;2201;51.100;6.814;2024-03-02T00:16:34;9.30;98.20
4374;DHT22;2201;51.100;6.814;2024-03-02T00:19:02;9.30;98.20
4374;DHT22;2201;51.100;6.814;2024-03-02T00:21:31;9.30;98.20
4374;DHT22;2201;51.100;6.814;2024-03-02T00:23:57;9.30;98.20
4374;DHT22;2201;51.100;6.814;2024-03-02T00:26:24;9.30;98.20
4374;DHT22;2201;51.100;6.814;2024-03-02T00:28:54;9.40;98.20
4374;DHT22;2201;51.100;6.814;2024-03-02T00:31:22;9.40;98.20
4374;DHT22;2201;51.100;6.814;2024-03-02T00:33:52;9.40;98.20
4374;DHT22;2201;51.100;6.814;2024-03-02T00:36:22;9.40;98.20
4374;DHT22;2201;51.100;6.814;2024-03-02T00:38:52;9.40;98.20
4374;DHT22;2201;51.100;6.814;2024-03-02T00:41:21;9.40;98.20
4374;DHT22;2201;51.100;6.814;2024-03-02T00:43:59;9.40;98.20
4374;DHT22;2201;51.100;6.814;2024-03-02T00:46:29;9.50;98.20
4374;DHT22;2201;51.100;6.814;2024-03-02T00:48:59;9.50;98.20
4374;DHT22;2201;51.100;6.814;2024-03-02T00:51:28;9.40;98.20
4374;DHT22;2201;51.100;6.814;2024-03-02T00:53:57;9.50;98.20
4374;DHT22;2201;51.100;6.814;2024-03-02T00:56:25;9.50;98.20
4374;DHT22;2201;51.100;6.814;2024-03-02T00:58:54;9.50;98.20
4374;DHT22;2201;51.100;6.814;2024-03-02T01:01:20;9.50;98.20
4374;DHT22;2201;51.100;6.814;2024-03-02T01:03:48;9.50;98.20
4374;DHT22;2201;51.100;6.814;2024-03-02T01:06:17;9.50;98.20
4374;DHT22;2201;51.100;6.814;2024-03-02T01:08:45;9.50;98.20
4374;DHT22;2201;51.100;6.814;2024-03-02T01:11:12;9.50;98.20
4374;DHT22;2201;51.100;6.814;2024-03-02T01:13:39;9.50;98.20
4374;DHT22;2201;51.100;6.814;2024-03-02T01:16:06;9.50;98.20
4374;DHT22;2201;51.100;6.814;2024-03-02T01:18:33;9.50;98.20
4374;DHT22;2201;51.100;6.814;2024-03-02T01:20:59;9.50;98.20
4374;DHT22;2201;51.100;6.814;2024-03-02T01:23:27;9.40;98.20
4374;DHT22;2201;51.100;6.814;2024-03-02T01:25:54;9.40;98.20
4374;DHT22;2201;51.100;6.814;2024-03-02T01:28:21;9.40;98.20
4374;DHT22;2201;51.100;6.814;2024-03-02T01:30:48;9.40;98.20
4374;DHT22;2201;51.100;6.814;2024-03-02T01:33:15;9.40;98.20
4374;DHT22;2201;51.100;6.814;2024-03-02T01:35:42;9.40;98.20
4374;DHT22;2201;51.100;6.814;2024-03-02T01:38:08;9.40;98.20
4374;DHT22;2201;51.100;6.814;2024-03-02T01:40:37;9.40;98.20
4374;DHT22;2201;51.100;6.814;2024-03-02T01:43:04;9.40;98.20
4374;DHT22;2201;51.100;6.814;2024-03-02T01:45:31;9.40;98.20
4374;DHT22;2201;51.100;6.814;2024-03-02T01:47:58;9.50;98.20
4374;DHT22;2201;51.100;6.814;2024-03-02T01:50:26;9.50;98.20
4374;DHT22;2201;51.100;6.814;2024-03-02T01:52:56;9.50;98.20
4374;DHT22;2201;51.100;6.814;2024-03-02T01:55:23;9.50;98.20
4374;DHT22;2201;51.100;6.814;2024-03-02T01:57:52;9.50;98.20
4374;DHT22;2201;51.100;6.814;2024-03-02T02:00:20;9.50;98.20
4374;DHT22;2201;51.100;6.814;2024-03-02T02:02:47;9.50;98.20
4374;DHT22;2201;51.100;6.814;2024-03-02T02:05:15;9.50;98.20
4374;DHT22;2201;51.100;6.814;2024-03-02T02:07:42;9.50;98.20
4374;DHT22;2201;51.100;6.814;2024-03-02T02:10:10;9.50;98.20
4374;DHT22;2201;51.100;6.814;2024-03-02T02:12:37;9.50;98.20
4374;DHT22;2201;51.100;6.814;2024-03-02T02:15:24;9.50;98.20
4374;DHT22;2201;51.100;6.814;2024-03-02T02:17:51;9.40;98.20
4374;DHT22;2201;51.100;6.814;2024-03-02T02:20:19;9.40;98.20
4374;DHT22;2201;51.100;6.814;2024-03-02T02:22:57;9.40;98.20
4374;DHT22;2201;51.100;6.814;2024-03-02T02:25:24;9.40;98.20
4374;DHT22;2201;51.100;6.814;2024-03-02T02:27:51;9.40;98.20
4374;DHT22;2201;51.100;6.814;2024-03-02T02:30:22;9.40;98.20
4374;DHT22;2201;51.100;6.814;2024-03-02T02:32:49;9.50;98.20
4374;DHT22;2201;51.100;6.814;2024-03-02T02:35:16;9.40;98.20
4374;DHT22;2201;51.100;6.814;2024-03-02T02:37:43;9.40;98.20
4374;DHT22;2201;51.100;6.814;2024-03-02T02:40:12;9.40;98.20
4374;DHT22;2201;51.100;6.814;2024-03-02T02:42:39;9.40;98.20
4374;DHT22;2201;51.100;6.814;2024-03-02T02:45:07;9.40;98.20
4374;DHT22;2201;51.100;6.814;2024-03-02T02:47:33;9.40;98.20
4374;DHT22;2201;51.100;6.814;2024-03-02T02:50:02;9.40;98.20
4374;DHT22;2201;51.100;6.814;2024-03-02T02:52:31;9.40;98.20
4374;DHT22;2201;51.100;6.814;2024-03-02T02:55:01;9.40;98.20
4374;DHT22;2201;51.100;6.814;2024-03-02T02:57:29;9.40;98.20
4374;DHT22;2201;51.100;6.814;2024-03-02T03:00:00;9.40;98.20
4374;DHT22;2201;51.100;6.814;2024-03-02T03:02:29;9.40;98.20
4374;DHT22;2201;51.100;6.814;2024-03-02T03:04:56;9.40;98.20
4374;DHT22;2201;51.100;6.814;2024-03-02T03:07:23;9.40;98.20
4374;DHT22;2201;51.100;6.814;2024-03-02T03:09:48;9.40;98.20
4374;DHT22;2201;51.100;6.814;2024-03-02T03:12:15;9.40;98.20
4374;DHT22;2201;51.100;6.814;2024-03-02T03:14:43;9.40;98.20
4374;DHT22;2201;51.100;6.814;2024-03-02T03:17:10;9.40;98.20
4374;DHT22;2201;51.100;6.814;2024-03-02T03:19:38;9.30;98.20
4374;DHT22;2201;51.100;6.814;2024-03-02T03:22:05;9.40;98.20
4374;DHT22;2201;51.100;6.814;2024-03-02T03:24:31;9.30;98.20
4374;DHT22;2201;51.100;6.814;2024-03-02T03:26:58;9.30;98.20
4374;DHT22;2201;51.100;6.814;2024-03-02T03:29:25;9.30;98.20
4374;DHT22;2201;51.100;6.814;2024-03-02T03:31:53;9.30;98.20
4374;DHT22;2201;51.100;6.814;2024-03-02T03:34:20;9.30;98.20
4374;DHT22;2201;51.100;6.814;2024-03-02T03:36:47;9.30;98.20
4374;DHT22;2201;51.100;6.814;2024-03-02T03:39:13;9.30;98.20
4374;DHT22;2201;51.100;6.814;2024-03-02T03:41:40;9.30;98.20
4374;DHT22;2201;51.100;6.814;2024-03-02T03:44:07;9.30;98.20
4374;DHT22;2201;51.100;6.814;2024-03-02T03:46:34;9.30;98.20
4374;DHT22;2201;51.100;6.814;2024-03-02T03:49:02;9.30;98.20
4374;DHT22;2201;51.100;6.814;2024-03-02T03:51:30;9.30;98.20
4374;DHT22;2201;51.100;6.814;2024-03-02T03:53:57;9.30;98.20
4374;DHT22;2201;51.100;6.814;2024-03-02T03:56:24;9.30;98.20
4374;DHT22;2201;51.100;6.814;2024-03-02T03:58:50;9.30;98.20
4374;DHT22;2201;51.100;6.814;2024-03-02T04:01:17;9.20;98.20
4374;DHT22;2201;51.100;6.814;2024-03-02T04:03:44;9.20;98.20
4374;DHT22;2201;51.100;6.814;2024-03-02T04:06:13;9.10;98.20
4374;DHT22;2201;51.100;6.814;2024-03-02T04:08:42;9.10;98.20
4374;DHT22;2201;51.100;6.814;2024-03-02T04:11:08;9.10;98.20
4374;DHT22;2201;51.100;6.814;2024-03-02T04:13:35;9.00;98.20
4374;DHT22;2201;51.100;6.814;2024-03-02T04:16:03;9.00;98.20
4374;DHT22;2201;51.100;6.814;2024-03-02T04:18:30;8.90;98.20
4374;DHT22;2201;51.100;6.814;2024-03-02T04:20:57;8.80;98.20
4374;DHT22;2201;51.100;6.814;2024-03-02T04:23:26;8.80;98.20
4374;DHT22;2201;51.100;6.814;2024-03-02T04:25:53;8.70;98.20
4374;DHT22;2201;51.100;6.814;2024-03-02T04:28:19;8.70;98.20
4374;DHT22;2201;51.100;6.814;2024-03-02T04:30:46;8.60;98.20
4374;DHT22;2201;51.100;6.814;2024-03-02T04:33:13;8.60;98.20
4374;DHT22;2201;51.100;6.814;2024-03-02T04:35:39;8.60;98.20
4374;DHT22;2201;51.100;6.814;2024-03-02T04:38:06;8.50;98.20
4374;DHT22;2201;51.100;6.814;2024-03-02T04:40:35;8.50;98.20
4374;DHT22;2201;51.100;6.814;2024-03-02T04:43:01;8.50;98.20
4374;DHT22;2201;51.100;6.814;2024-03-02T04:45:29;8.60;98.20
4374;DHT22;2201;51.100;6.814;2024-03-02T04:47:55;8.60;98.20
4374;DHT22;2201;51.100;6.814;2024-03-02T04:50:22;8.60;98.20
4374;DHT22;2201;51.100;6.814;2024-03-02T04:52:49;8.60;98.20
4374;DHT22;2201;51.100;6.814;2024-03-02T04:55:16;8.70;98.20
4374;DHT22;2201;51.100;6.814;2024-03-02T04:58:12;8.70;98.20
4374;DHT22;2201;51.100;6.814;2024-03-02T05:00:38;8.60;98.20
4374;DHT22;2201;51.100;6.814;2024-03-02T05:03:05;8.60;98.20
4374;DHT22;2201;51.100;6.814;2024-03-02T05:05:32;8.60;98.20
4374;DHT22;2201;51.100;6.814;2024-03-02T05:07:59;8.60;98.20
4374;DHT22;2201;51.100;6.814;2024-03-02T05:10:25;8.60;98.20
4374;DHT22;2201;51.100;6.814;2024-03-02T05:12:52;8.50;98.20
4374;DHT22;2201;51.100;6.814;2024-03-02T05:15:26;8.50;98.20
4374;DHT22;2201;51.100;6.814;2024-03-02T05:17:53;8.60;98.20
4374;DHT22;2201;51.100;6.814;2024-03-02T05:20:22;8.60;98.20
4374;DHT22;2201;51.100;6.814;2024-03-02T05:22:49;8.60;98.20
4374;DHT22;2201;51.100;6.814;2024-03-02T05:25:16;8.60;98.20
4374;DHT22;2201;51.100;6.814;2024-03-02T05:27:42;8.60;98.20
4374;DHT22;2201;51.100;6.814;2024-03-02T05:30:10;8.60;98.20
4374;DHT22;2201;51.100;6.814;2024-03-02T05:32:38;8.60;98.20
4374;DHT22;2201;51.100;6.814;2024-03-02T05:35:06;8.50;98.20
4374;DHT22;2201;51.100;6.814;2024-03-02T05:37:33;8.50;98.20
4374;DHT22;2201;51.100;6.814;2024-03-02T05:40:00;8.50;98.20
4374;DHT22;2201;51.100;6.814;2024-03-02T05:42:27;8.40;98.20
4374;DHT22;2201;51.100;6.814;2024-03-02T05:44:53;8.40;98.20
4374;DHT22;2201;51.100;6.814;2024-03-02T05:47:20;8.40;98.20
4374;DHT22;2201;51.100;6.814;2024-03-02T05:49:48;8.40;98.20
4374;DHT22;2201;51.100;6.814;2024-03-02T05:52:15;8.30;98.20
4374;DHT22;2201;51.100;6.814;2024-03-02T05:54:42;8.30;98.20
4374;DHT22;2201;51.100;6.814;2024-03-02T05:57:09;8.30;98.20
4374;DHT22;2201;51.100;6.814;2024-03-02T05:59:57;8.30;98.20
4374;DHT22;2201;51.100;6.814;2024-03-02T06:02:24;8.30;98.20
4374;DHT22;2201;51.100;6.814;2024-03-02T06:04:54;8.30;98.20
4374;DHT22;2201;51.100;6.814;2024-03-02T06:07:20;8.20;98.20
4374;DHT22;2201;51.100;6.814;2024-03-02T06:09:47;8.20;98.20
4374;DHT22;2201;51.100;6.814;2024-03-02T06:12:16;8.30;98.20
4374;DHT22;2201;51.100;6.814;2024-03-02T06:14:43;8.30;98.20
4374;DHT22;2201;51.100;6.814;2024-03-02T06:17:10;8.30;98.20
4374;DHT22;2201;51.100;6.814;2024-03-02T06:19:37;8.30;98.20
4374;DHT22;2201;51.100;6.814;2024-03-02T06:22:05;8.30;98.20
4374;DHT22;2201;51.100;6.814;2024-03-02T06:24:35;8.30;98.20
4374;DHT22;2201;51.100;6.814;2024-03-02T06:27:02;8.40;98.20
4374;DHT22;2201;51.100;6.814;2024-03-02T06:29:28;8.40;98.20
4374;DHT22;2201;51.100;6.814;2024-03-02T06:31:55;8.40;98.20
4374;DHT22;2201;51.100;6.814;2024-03-02T06:34:21;8.30;98.20
4374;DHT22;2201;51.100;6.814;2024-03-02T06:36:48;8.30;98.20
4374;DHT22;2201;51.100;6.814;2024-03-02T06:39:16;8.30;98.20
4374;DHT22;2201;51.100;6.814;2024-03-02T06:41:43;8.30;98.20
4374;DHT22;2201;51.100;6.814;2024-03-02T06:44:12;8.30;98.20
4374;DHT22;2201;51.100;6.814;2024-03-02T06:46:39;8.30;98.20
4374;DHT22;2201;51.100;6.814;2024-03-02T06:49:06;8.30;98.20
4374;DHT22;2201;51.100;6.814;2024-03-02T06:51:35;8.30;98.20
4374;DHT22;2201;51.100;6.814;2024-03-02T06:54:02;8.30;98.20
4374;DHT22;2201;51.100;6.814;2024-03-02T06:56:30;8.30;98.20
4374;DHT22;2201;51.100;6.814;2024-03-02T06:58:58;8.30;98.20
4374;DHT22;2201;51.100;6.814;2024-03-02T07:01:25;8.40;98.20
4374;DHT22;2201;51.100;6.814;2024-03-02T07:03:53;8.40;98.20
4374;DHT22;2201;51.100;6.814;2024-03-02T07:06:20;8.50;98.20
4374;DHT22;2201;51.100;6.814;2024-03-02T07:08:47;8.50;98.20
4374;DHT22;2201;51.100;6.814;2024-03-02T07:11:14;8.60;98.20
4374;DHT22;2201;51.100;6.814;2024-03-02T07:13:42;8.70;98.20
4374;DHT22;2201;51.100;6.814;2024-03-02T07:16:09;8.70;98.20
4374;DHT22;2201;51.100;6.814;2024-03-02T07:18:54;8.80;98.20
4374;DHT22;2201;51.100;6.814;2024-03-02T07:21:22;8.80;98.20
4374;DHT22;2201;51.100;6.814;2024-03-02T07:27:22;9.10;98.20
4374;DHT22;2201;51.100;6.814;2024-03-02T07:30:01;9.30;98.20
4374;DHT22;2201;51.100;6.814;2024-03-02T07:32:29;9.40;98.20
4374;DHT22;2201;51.100;6.814;2024-03-02T07:35:01;9.50;98.20
4374;DHT22;2201;51.100;6.814;2024-03-02T07:37:29;9.50;98.20
4374;DHT22;2201;51.100;6.814;2024-03-02T07:39:59;9.50;98.20
4374;DHT22;2201;51.100;6.814;2024-03-02T07:42:40;9.60;98.20
4374;DHT22;2201;51.100;6.814;2024-03-02T07:45:13;9.60;98.20
4374;DHT22;2201;51.100;6.814;2024-03-02T07:47:41;9.60;98.20
4374;DHT22;2201;51.100;6.814;2024-03-02T07:50:14;9.70;98.20
4374;DHT22;2201;51.100;6.814;2024-03-02T07:52:46;9.90;98.20
4374;DHT22;2201;51.100;6.814;2024-03-02T07:55:13;10.00;98.20
4374;DHT22;2201;51.100;6.814;2024-03-02T07:57:40;10.10;98.20
4374;DHT22;2201;51.100;6.814;2024-03-02T08:00:37;10.30;98.20
4374;DHT22;2201;51.100;6.814;2024-03-02T08:03:05;10.40;98.20
4374;DHT22;2201;51.100;6.814;2024-03-02T08:05:32;10.40;98.20
4374;DHT22;2201;51.100;6.814;2024-03-02T08:07:59;10.50;98.20
4374;DHT22;2201;51.100;6.814;2024-03-02T08:10:26;10.70;98.20
4374;DHT22;2201;51.100;6.814;2024-03-02T08:12:52;10.80;98.20
4374;DHT22;2201;51.100;6.814;2024-03-02T08:15:20;10.90;98.20
4374;DHT22;2201;51.100;6.814;2024-03-02T08:17:48;11.00;98.20
4374;DHT22;2201;51.100;6.814;2024-03-02T08:20:15;11.20;98.20
4374;DHT22;2201;51.100;6.814;2024-03-02T08:22:42;11.40;98.20
4374;DHT22;2201;51.100;6.814;2024-03-02T08:25:13;11.60;98.20
4374;DHT22;2201;51.100;6.814;2024-03-02T08:27:42;11.90;98.20
4374;DHT22;2201;51.100;6.814;2024-03-02T08:30:10;11.90;98.20
4374;DHT22;2201;51.100;6.814;2024-03-02T08:32:39;12.00;98.20
4374;DHT22;2201;51.100;6.814;2024-03-02T08:35:23;12.10;98.20
4374;DHT22;2201;51.100;6.814;2024-03-02T08:37:50;12.00;98.20
4374;DHT22;2201;51.100;6.814;2024-03-02T08:40:17;12.00;98.20
4374;DHT22;2201;51.100;6.814;2024-03-02T08:42:44;12.00;98.20
4374;DHT22;2201;51.100;6.814;2024-03-02T08:45:11;11.90;98.20
4374;DHT22;2201;51.100;6.814;2024-03-02T08:47:38;11.80;98.20
4374;DHT22;2201;51.100;6.814;2024-03-02T08:50:06;11.80;98.20
4374;DHT22;2201;51.100;6.814;2024-03-02T08:52:35;11.80;98.20
4374;DHT22;2201;51.100;6.814;2024-03-02T08:55:02;11.90;98.20
4374;DHT22;2201;51.100;6.814;2024-03-02T08:57:29;12.00;98.20
4374;DHT22;2201;51.100;6.814;2024-03-02T08:59:56;12.20;98.20
4374;DHT22;2201;51.100;6.814;2024-03-02T09:02:23;12.30;98.20
4374;DHT22;2201;51.100;6.814;2024-03-02T09:04:50;12.50;98.20
4374;DHT22;2201;51.100;6.814;2024-03-02T09:07:17;12.60;98.20
4374;DHT22;2201;51.100;6.814;2024-03-02T09:09:46;12.60;98.20
4374;DHT22;2201;51.100;6.814;2024-03-02T09:12:13;12.70;98.20
4374;DHT22;2201;51.100;6.814;2024-03-02T09:14:40;12.80;98.20
4374;DHT22;2201;51.100;6.814;2024-03-02T09:17:07;12.90;98.20
4374;DHT22;2201;51.100;6.814;2024-03-02T09:19:36;13.00;98.20
4374;DHT22;2201;51.100;6.814;2024-03-02T09:22:03;13.00;97.90
4374;DHT22;2201;51.100;6.814;2024-03-02T09:24:31;12.90;98.20
4374;DHT22;2201;51.100;6.814;2024-03-02T09:26:59;12.90;98.20
4374;DHT22;2201;51.100;6.814;2024-03-02T09:29:26;13.00;98.20
4374;DHT22;2201;51.100;6.814;2024-03-02T09:31:53;13.10;98.00
4374;DHT22;2201;51.100;6.814;2024-03-02T09:34:20;13.20;97.80
4374;DHT22;2201;51.100;6.814;2024-03-02T09:36:48;13.30;97.60
4374;DHT22;2201;51.100;6.814;2024-03-02T09:39:17;13.20;97.70
4374;DHT22;2201;51.100;6.814;2024-03-02T09:41:44;13.30;97.70
4374;DHT22;2201;51.100;6.814;2024-03-02T09:44:13;13.40;97.60
4374;DHT22;2201;51.100;6.814;2024-03-02T09:46:39;13.50;97.40
4374;DHT22;2201;51.100;6.814;2024-03-02T09:49:09;13.50;97.50
4374;DHT22;2201;51.100;6.814;2024-03-02T09:51:37;13.60;96.40
4374;DHT22;2201;51.100;6.814;2024-03-02T09:54:04;13.60;97.10
4374;DHT22;2201;51.100;6.814;2024-03-02T09:56:31;13.70;96.90
4374;DHT22;2201;51.100;6.814;2024-03-02T09:58:58;13.80;96.30
4374;DHT22;2201;51.100;6.814;2024-03-02T10:01:27;13.70;95.60
4374;DHT22;2201;51.100;6.814;2024-03-02T10:03:54;13.80;96.20
4374;DHT22;2201;51.100;6.814;2024-03-02T10:06:24;13.90;96.40
4374;DHT22;2201;51.100;6.814;2024-03-02T10:08:51;14.00;96.10
4374;DHT22;2201;51.100;6.814;2024-03-02T10:11:36;14.00;95.90
4374;DHT22;2201;51.100;6.814;2024-03-02T10:14:05;14.10;95.90
4374;DHT22;2201;51.100;6.814;2024-03-02T10:16:35;14.20;95.40
4374;DHT22;2201;51.100;6.814;2024-03-02T10:19:16;14.40;95.90
4374;DHT22;2201;51.100;6.814;2024-03-02T10:21:44;14.60;94.90
4374;DHT22;2201;51.100;6.814;2024-03-02T10:24:11;14.70;94.70
4374;DHT22;2201;51.100;6.814;2024-03-02T10:26:38;14.70;93.60
4374;DHT22;2201;51.100;6.814;2024-03-02T10:29:05;14.80;94.20
4374;DHT22;2201;51.100;6.814;2024-03-02T10:31:32;14.80;94.20
4374;DHT22;2201;51.100;6.814;2024-03-02T10:34:00;15.00;94.30
4374;DHT22;2201;51.100;6.814;2024-03-02T10:36:28;15.20;91.80
4374;DHT22;2201;51.100;6.814;2024-03-02T10:38:56;15.10;92.10
4374;DHT22;2201;51.100;6.814;2024-03-02T10:41:26;15.00;93.20
4374;DHT22;2201;51.100;6.814;2024-03-02T10:43:53;15.10;93.00
4374;DHT22;2201;51.100;6.814;2024-03-02T10:46:28;15.30;92.30
4374;DHT22;2201;51.100;6.814;2024-03-02T10:48:55;15.40;92.00
4374;DHT22;2201;51.100;6.814;2024-03-02T10:51:25;15.40;91.10
4374;DHT22;2201;51.100;6.814;2024-03-02T10:53:56;15.50;91.30
4374;DHT22;2201;51.100;6.814;2024-03-02T10:56:28;15.40;90.60
4374;DHT22;2201;51.100;6.814;2024-03-02T10:59:01;15.30;91.90
4374;DHT22;2201;51.100;6.814;2024-03-02T11:01:29;15.30;91.60
4374;DHT22;2201;51.100;6.814;2024-03-02T11:03:58;15.40;91.60
4374;DHT22;2201;51.100;6.814;2024-03-02T11:06:28;15.50;91.30
4374;DHT22;2201;51.100;6.814;2024-03-02T11:08:58;15.50;90.40
4374;DHT22;2201;51.100;6.814;2024-03-02T11:11:31;15.50;90.20
4374;DHT22;2201;51.100;6.814;2024-03-02T11:14:01;15.60;90.90
4374;DHT22;2201;51.100;6.814;2024-03-02T11:16:35;15.80;89.90
4374;DHT22;2201;51.100;6.814;2024-03-02T11:19:05;15.80;89.60
4374;DHT22;2201;51.100;6.814;2024-03-02T11:21:34;15.90;90.00
4374;DHT22;2201;51.100;6.814;2024-03-02T11:24:28;16.00;88.70
4374;DHT22;2201;51.100;6.814;2024-03-02T11:26:59;15.90;88.30
4374;DHT22;2201;51.100;6.814;2024-03-02T11:29:44;15.90;88.90
4374;DHT22;2201;51.100;6.814;2024-03-02T11:32:16;15.90;88.70
4374;DHT22;2201;51.100;6.814;2024-03-02T11:34:45;15.90;88.80
4374;DHT22;2201;51.100;6.814;2024-03-02T11:37:15;15.90;88.40
4374;DHT22;2201;51.100;6.814;2024-03-02T11:39:44;15.90;88.90
4374;DHT22;2201;51.100;6.814;2024-03-02T11:42:12;15.70;88.60
4374;DHT22;2201;51.100;6.814;2024-03-02T11:44:43;15.60;88.60
4374;DHT22;2201;51.100;6.814;2024-03-02T11:47:12;15.60;88.60
4374;DHT22;2201;51.100;6.814;2024-03-02T11:49:43;15.60;89.00
4374;DHT22;2201;51.100;6.814;2024-03-02T11:52:11;15.60;90.60
4374;DHT22;2201;51.100;6.814;2024-03-02T11:54:41;15.90;90.20
4374;DHT22;2201;51.100;6.814;2024-03-02T11:57:13;16.00;88.50
4374;DHT22;2201;51.100;6.814;2024-03-02T11:59:40;16.20;88.00
4374;DHT22;2201;51.100;6.814;2024-03-02T12:02:14;16.20;87.20
4374;DHT22;2201;51.100;6.814;2024-03-02T12:04:41;16.10;87.20
4374;DHT22;2201;51.100;6.814;2024-03-02T12:07:09;16.10;87.50
4374;DHT22;2201;51.100;6.814;2024-03-02T12:09:37;16.20;87.30
4374;DHT22;2201;51.100;6.814;2024-03-02T12:12:07;16.20;87.10
4374;DHT22;2201;51.100;6.814;2024-03-02T12:14:35;16.00;87.50
4374;DHT22;2201;51.100;6.814;2024-03-02T12:17:03;15.90;88.70
4374;DHT22;2201;51.100;6.814;2024-03-02T12:19:33;15.80;88.70
4374;DHT22;2201;51.100;6.814;2024-03-02T12:22:00;15.80;89.90
4374;DHT22;2201;51.100;6.814;2024-03-02T12:24:29;15.70;89.70
4374;DHT22;2201;51.100;6.814;2024-03-02T12:26:58;15.60;90.00
4374;DHT22;2201;51.100;6.814;2024-03-02T12:29:28;15.50;90.20
4374;DHT22;2201;51.100;6.814;2024-03-02T12:31:56;15.40;90.60
4374;DHT22;2201;51.100;6.814;2024-03-02T12:34:23;15.40;90.60
4374;DHT22;2201;51.100;6.814;2024-03-02T12:36:50;15.20;90.70
4374;DHT22;2201;51.100;6.814;2024-03-02T12:39:19;15.20;90.80
4374;DHT22;2201;51.100;6.814;2024-03-02T12:41:49;15.20;91.00
4374;DHT22;2201;51.100;6.814;2024-03-02T12:44:17;15.20;91.10
4374;DHT22;2201;51.100;6.814;2024-03-02T12:46:47;15.30;92.00
4374;DHT22;2201;51.100;6.814;2024-03-02T12:49:15;15.30;91.60
4374;DHT22;2201;51.100;6.814;2024-03-02T12:51:43;15.20;91.60
4374;DHT22;2201;51.100;6.814;2024-03-02T12:54:12;15.10;92.10
4374;DHT22;2201;51.100;6.814;2024-03-02T12:56:41;15.00;91.60
4374;DHT22;2201;51.100;6.814;2024-03-02T12:59:18;14.90;92.30
4374;DHT22;2201;51.100;6.814;2024-03-02T13:01:51;14.80;92.10
4374;DHT22;2201;51.100;6.814;2024-03-02T13:04:22;14.70;92.10
4374;DHT22;2201;51.100;6.814;2024-03-02T13:06:49;14.70;92.20
4374;DHT22;2201;51.100;6.814;2024-03-02T13:09:17;14.70;92.10
4374;DHT22;2201;51.100;6.814;2024-03-02T13:11:44;14.70;92.20
4374;DHT22;2201;51.100;6.814;2024-03-02T13:14:11;14.70;92.30
4374;DHT22;2201;51.100;6.814;2024-03-02T13:16:38;14.70;92.70
4374;DHT22;2201;51.100;6.814;2024-03-02T13:19:08;14.60;92.20
4374;DHT22;2201;51.100;6.814;2024-03-02T13:21:35;14.60;92.20
4374;DHT22;2201;51.100;6.814;2024-03-02T13:24:02;14.60;92.70
4374;DHT22;2201;51.100;6.814;2024-03-02T13:26:29;14.60;92.50
4374;DHT22;2201;51.100;6.814;2024-03-02T13:28:56;14.70;92.50
4374;DHT22;2201;51.100;6.814;2024-03-02T13:31:23;14.80;92.50
4374;DHT22;2201;51.100;6.814;2024-03-02T13:33:50;15.00;92.20
4374;DHT22;2201;51.100;6.814;2024-03-02T13:36:18;15.10;91.70
4374;DHT22;2201;51.100;6.814;2024-03-02T13:38:45;15.10;91.20
4374;DHT22;2201;51.100;6.814;2024-03-02T13:41:12;15.10;91.50
4374;DHT22;2201;51.100;6.814;2024-03-02T13:43:38;15.10;91.20
4374;DHT22;2201;51.100;6.814;2024-03-02T13:46:05;15.00;91.40
4374;DHT22;2201;51.100;6.814;2024-03-02T13:48:33;14.80;92.00
4374;DHT22;2201;51.100;6.814;2024-03-02T13:50:59;14.80;92.60
4374;DHT22;2201;51.100;6.814;2024-03-02T13:53:28;14.70;92.90
4374;DHT22;2201;51.100;6.814;2024-03-02T13:55:54;14.70;92.80
4374;DHT22;2201;51.100;6.814;2024-03-02T13:58:21;14.80;92.80
4374;DHT22;2201;51.100;6.814;2024-03-02T14:00:48;14.70;93.10
4374;DHT22;2201;51.100;6.814;2024-03-02T14:03:15;14.80;93.20
4374;DHT22;2201;51.100;6.814;2024-03-02T14:05:43;14.80;92.80
4374;DHT22;2201;51.100;6.814;2024-03-02T14:08:11;14.80;93.00
4374;DHT22;2201;51.100;6.814;2024-03-02T14:10:39;14.80;93.30
4374;DHT22;2201;51.100;6.814;2024-03-02T14:13:08;14.80;92.90
4374;DHT22;2201;51.100;6.814;2024-03-02T14:15:35;14.80;92.00
4374;DHT22;2201;51.100;6.814;2024-03-02T14:18:04;14.80;92.60
4374;DHT22;2201;51.100;6.814;2024-03-02T14:20:31;14.80;92.90
4374;DHT22;2201;51.100;6.814;2024-03-02T14:22:58;14.90;92.50
4374;DHT22;2201;51.100;6.814;2024-03-02T14:25:26;14.90;92.40
4374;DHT22;2201;51.100;6.814;2024-03-02T14:27:57;15.00;91.90
4374;DHT22;2201;51.100;6.814;2024-03-02T14:30:24;15.00;91.70
4374;DHT22;2201;51.100;6.814;2024-03-02T14:32:51;15.00;92.70
4374;DHT22;2201;51.100;6.814;2024-03-02T14:35:17;15.00;91.00
4374;DHT22;2201;51.100;6.814;2024-03-02T14:37:44;15.00;91.80
4374;DHT22;2201;51.100;6.814;2024-03-02T14:40:14;15.00;91.40
4374;DHT22;2201;51.100;6.814;2024-03-02T14:42:40;15.00;92.00
4374;DHT22;2201;51.100;6.814;2024-03-02T14:45:14;15.00;91.50
4374;DHT22;2201;51.100;6.814;2024-03-02T14:47:41;15.00;90.50
4374;DHT22;2201;51.100;6.814;2024-03-02T14:50:08;15.00;90.30
4374;DHT22;2201;51.100;6.814;2024-03-02T14:52:35;15.00;90.30
4374;DHT22;2201;51.100;6.814;2024-03-02T14:55:02;15.10;90.50
4374;DHT22;2201;51.100;6.814;2024-03-02T14:57:29;15.10;90.50
4374;DHT22;2201;51.100;6.814;2024-03-02T14:59:56;15.20;91.40
4374;DHT22;2201;51.100;6.814;2024-03-02T15:02:24;15.20;91.40
4374;DHT22;2201;51.100;6.814;2024-03-02T15:04:54;15.20;91.40
4374;DHT22;2201;51.100;6.814;2024-03-02T15:07:21;15.10;91.50
4374;DHT22;2201;51.100;6.814;2024-03-02T15:09:48;15.00;91.40
4374;DHT22;2201;51.100;6.814;2024-03-02T15:12:15;15.00;91.60
4374;DHT22;2201;51.100;6.814;2024-03-02T15:14:43;15.10;91.50
4374;DHT22;2201;51.100;6.814;2024-03-02T15:17:12;15.00;91.60
4374;DHT22;2201;51.100;6.814;2024-03-02T15:19:42;15.00;91.70
4374;DHT22;2201;51.100;6.814;2024-03-02T15:22:09;15.00;91.50
4374;DHT22;2201;51.100;6.814;2024-03-02T15:24:35;15.00;91.40
4374;DHT22;2201;51.100;6.814;2024-03-02T15:27:02;15.00;91.70
4374;DHT22;2201;51.100;6.814;2024-03-02T15:29:30;15.00;91.30
4374;DHT22;2201;51.100;6.814;2024-03-02T15:31:57;15.00;91.40
4374;DHT22;2201;51.100;6.814;2024-03-02T15:34:24;15.10;90.90
4374;DHT22;2201;51.100;6.814;2024-03-02T15:36:52;15.10;90.70
4374;DHT22;2201;51.100;6.814;2024-03-02T15:39:20;15.10;91.30
4374;DHT22;2201;51.100;6.814;2024-03-02T15:41:47;15.00;91.30
4374;DHT22;2201;51.100;6.814;2024-03-02T15:44:14;15.00;90.80
4374;DHT22;2201;51.100;6.814;2024-03-02T15:46:41;14.90;91.10
4374;DHT22;2201;51.100;6.814;2024-03-02T15:49:07;14.90;91.50
4374;DHT22;2201;51.100;6.814;2024-03-02T15:51:34;14.90;91.80
4374;DHT22;2201;51.100;6.814;2024-03-02T15:54:07;14.90;91.60
4374;DHT22;2201;51.100;6.814;2024-03-02T15:56:34;14.80;91.10
4374;DHT22;2201;51.100;6.814;2024-03-02T15:59:01;14.80;91.50
4374;DHT22;2201;51.100;6.814;2024-03-02T16:01:29;14.80;91.20
4374;DHT22;2201;51.100;6.814;2024-03-02T16:06:28;14.80;91.50
4374;DHT22;2201;51.100;6.814;2024-03-02T16:08:55;14.80;91.80
4374;DHT22;2201;51.100;6.814;2024-03-02T16:11:26;14.80;91.60
4374;DHT22;2201;51.100;6.814;2024-03-02T16:13:53;14.80;91.40
4374;DHT22;2201;51.100;6.814;2024-03-02T16:16:20;14.70;91.70
4374;DHT22;2201;51.100;6.814;2024-03-02T16:18:47;14.70;91.50
4374;DHT22;2201;51.100;6.814;2024-03-02T16:21:14;14.70;91.80
4374;DHT22;2201;51.100;6.814;2024-03-02T16:23:41;14.70;91.60